sensor_id;sensor_type;location;lat;lon;timestamp;pressure;altitude;pressure_sealevel;temperature;humidity
72975;BME280;61166;54.228;37.632;2023-04-28T02:28:25;98779.50;;;9.91;nan
72975;BME280;61166;54.228;37.632;2023-04-28T03:09:55;98786.69;;;10.75;nan
72975;BME280;61166;54.228;37.632;2023-04-28T03:12:21;98788.66;;;10.80;nan
72975;BME280;61166;54.228;37.632;2023-04-28T03:14:48;98788.03;;;10.96;nan
72975;BME280;61166;54.228;37.632;2023-04-28T03:17:14;98799.16;;;11.10;nan
72975;BME280;61166;54.228;37.632;2023-04-28T03:24:33;98794.75;;;11.22;nan
72975;BME280;61166;54.228;37.632;2023-04-28T03:29:26;98804.28;;;11.35;nan
72975;BME280;61166;54.228;37.632;2023-04-28T03:31:53;98805.25;;;11.22;nan
72975;BME280;61166;54.228;37.632;2023-04-28T03:34:19;98803.84;;;11.08;nan
72975;BME280;61166;54.228;37.632;2023-04-28T03:46:32;98807.06;;;11.10;nan
72975;BME280;61166;54.228;37.632;2023-04-28T03:48:58;98797.69;;;11.14;nan
72975;BME280;61166;54.228;37.632;2023-04-28T04:10:57;98817.03;;;11.49;nan
72975;BME280;61166;54.228;37.632;2023-04-28T04:13:24;98818.50;;;11.57;nan
72975;BME280;61166;54.228;37.632;2023-04-28T04:15:50;98820.00;;;11.65;nan
72975;BME280;61166;54.228;37.632;2023-04-28T04:18:17;98815.88;;;11.69;nan
72975;BME280;61166;54.228;37.632;2023-04-28T04:23:10;98821.84;;;11.76;nan
72975;BME280;61166;54.228;37.632;2023-04-28T04:25:37;98824.19;;;11.84;nan
72975;BME280;61166;54.228;37.632;2023-04-28T04:28:03;98823.28;;;11.90;nan
72975;BME280;61166;54.228;37.632;2023-04-28T04:30:30;98825.91;;;12.02;nan
72975;BME280;61166;54.228;37.632;2023-04-28T04:32:56;98823.06;;;12.03;nan
72975;BME280;61166;54.228;37.632;2023-04-28T04:35:23;98819.59;;;12.26;nan
72975;BME280;61166;54.228;37.632;2023-04-28T04:59:48;98812.88;;;14.71;nan
72975;BME280;61166;54.228;37.632;2023-04-28T05:04:41;98812.75;;;14.61;nan
72975;BME280;61166;54.228;37.632;2023-04-28T05:07:08;98796.31;;;14.81;nan
72975;BME280;61166;54.228;37.632;2023-04-28T05:09:34;98807.59;;;14.71;nan
72975;BME280;61166;54.228;37.632;2023-04-28T05:12:01;98803.72;;;14.79;nan
72975;BME280;61166;54.228;37.632;2023-04-28T05:14:27;98817.31;;;14.88;nan
72975;BME280;61166;54.228;37.632;2023-04-28T05:16:54;98808.91;;;15.49;nan
72975;BME280;61166;54.228;37.632;2023-04-28T05:21:47;98809.84;;;17.42;nan
72975;BME280;61166;54.228;37.632;2023-04-28T05:29:07;98825.34;;;18.81;nan
72975;BME280;61166;54.228;37.632;2023-04-28T05:31:33;98819.47;;;17.84;nan
72975;BME280;61166;54.228;37.632;2023-04-28T05:34:00;98814.28;;;17.01;nan
72975;BME280;61166;54.228;37.632;2023-04-28T05:36:26;98817.72;;;16.92;nan
72975;BME280;61166;54.228;37.632;2023-04-28T05:38:53;98813.25;;;15.93;nan
72975;BME280;61166;54.228;37.632;2023-04-28T05:41:20;98821.38;;;15.81;nan
72975;BME280;61166;54.228;37.632;2023-04-28T05:46:12;98815.72;;;16.04;nan
72975;BME280;61166;54.228;37.632;2023-04-28T05:48:55;98825.84;;;16.17;nan
72975;BME280;61166;54.228;37.632;2023-04-28T05:51:22;98817.69;;;16.87;nan
72975;BME280;61166;54.228;37.632;2023-04-28T06:15:50;98839.00;;;15.11;nan
72975;BME280;61166;54.228;37.632;2023-04-28T07:02:26;98842.97;;;13.26;nan
72975;BME280;61166;54.228;37.632;2023-04-28T07:04:52;98830.34;;;13.95;nan
72975;BME280;61166;54.228;37.632;2023-04-28T07:07:19;98842.44;;;14.63;nan
72975;BME280;61166;54.228;37.632;2023-04-28T07:12:12;98849.78;;;17.68;nan
72975;BME280;61166;54.228;37.632;2023-04-28T07:17:05;98857.44;;;16.14;nan
72975;BME280;61166;54.228;37.632;2023-04-28T07:19:31;98868.25;;;15.75;nan
72975;BME280;61166;54.228;37.632;2023-04-28T07:21:58;98863.66;;;15.39;nan
72975;BME280;61166;54.228;37.632;2023-04-28T07:24:24;98871.16;;;15.20;nan
72975;BME280;61166;54.228;37.632;2023-04-28T07:26:51;98867.59;;;15.09;nan
72975;BME280;61166;54.228;37.632;2023-04-28T07:31:44;98870.25;;;15.09;nan
72975;BME280;61166;54.228;37.632;2023-04-28T07:34:10;98870.16;;;15.26;nan
72975;BME280;61166;54.228;37.632;2023-04-28T07:36:37;98865.66;;;15.53;nan
72975;BME280;61166;54.228;37.632;2023-04-28T07:39:03;98889.41;;;15.43;nan
72975;BME280;61166;54.228;37.632;2023-04-28T07:41:35;98881.31;;;15.55;nan
72975;BME280;61166;54.228;37.632;2023-04-28T07:44:01;98887.00;;;15.15;nan
72975;BME280;61166;54.228;37.632;2023-04-28T07:51:21;98894.16;;;14.93;nan
72975;BME280;61166;54.228;37.632;2023-04-28T07:53:47;98901.34;;;14.75;nan
72975;BME280;61166;54.228;37.632;2023-04-28T07:56:14;98893.75;;;14.62;nan
72975;BME280;61166;54.228;37.632;2023-04-28T07:58:40;98893.09;;;14.16;nan
72975;BME280;61166;54.228;37.632;2023-04-28T08:01:07;98893.25;;;14.10;nan
72975;BME280;61166;54.228;37.632;2023-04-28T08:03:33;98889.63;;;13.99;nan
72975;BME280;61166;54.228;37.632;2023-04-28T08:06:00;98898.13;;;14.01;nan
72975;BME280;61166;54.228;37.632;2023-04-28T08:08:29;98880.09;;;14.15;nan
72975;BME280;61166;54.228;37.632;2023-04-28T08:10:55;98874.81;;;14.15;nan
72975;BME280;61166;54.228;37.632;2023-04-28T08:13:22;98877.63;;;14.08;nan
72975;BME280;61166;54.228;37.632;2023-04-28T08:15:48;98874.75;;;14.10;nan
72975;BME280;61166;54.228;37.632;2023-04-28T08:18:15;98872.97;;;13.99;nan
72975;BME280;61166;54.228;37.632;2023-04-28T08:20:42;98888.84;;;13.99;nan
72975;BME280;61166;54.228;37.632;2023-04-28T08:23:08;98888.84;;;13.99;nan
72975;BME280;61166;54.228;37.632;2023-04-28T08:30:28;98895.72;;;14.16;nan
72975;BME280;61166;54.228;37.632;2023-04-28T08:37:47;98891.31;;;14.77;nan
72975;BME280;61166;54.228;37.632;2023-04-28T08:40:14;98886.47;;;14.91;nan
72975;BME280;61166;54.228;37.632;2023-04-28T08:42:41;98874.66;;;15.04;nan
72975;BME280;61166;54.228;37.632;2023-04-28T08:45:12;98879.25;;;14.86;nan
72975;BME280;61166;54.228;37.632;2023-04-28T08:47:40;98898.56;;;14.65;nan
72975;BME280;61166;54.228;37.632;2023-04-28T08:50:07;98871.22;;;14.60;nan
72975;BME280;61166;54.228;37.632;2023-04-28T08:52:34;98877.22;;;14.72;nan
72975;BME280;61166;54.228;37.632;2023-04-28T08:55:08;98879.88;;;14.94;nan
72975;BME280;61166;54.228;37.632;2023-04-28T08:57:42;98872.44;;;15.17;nan
72975;BME280;61166;54.228;37.632;2023-04-28T09:00:11;98886.22;;;15.68;nan
72975;BME280;61166;54.228;37.632;2023-04-28T09:02:38;98899.16;;;15.60;nan
72975;BME280;61166;54.228;37.632;2023-04-28T09:05:09;98896.50;;;15.38;nan
72975;BME280;61166;54.228;37.632;2023-04-28T09:07:36;98895.78;;;15.20;nan
72975;BME280;61166;54.228;37.632;2023-04-28T09:10:20;98895.88;;;15.52;nan
72975;BME280;61166;54.228;37.632;2023-04-28T09:12:49;98891.47;;;15.36;nan
72975;BME280;61166;54.228;37.632;2023-04-28T09:17:53;98887.38;;;15.02;nan
72975;BME280;61166;54.228;37.632;2023-04-28T09:20:21;98882.69;;;15.09;nan
72975;BME280;61166;54.228;37.632;2023-04-28T09:22:48;98879.16;;;15.03;nan
72975;BME280;61166;54.228;37.632;2023-04-28T09:25:16;98875.47;;;15.04;nan
72975;BME280;61166;54.228;37.632;2023-04-28T09:27:43;98862.28;;;15.09;nan
72975;BME280;61166;54.228;37.632;2023-04-28T09:30:10;98865.50;;;15.11;nan
72975;BME280;61166;54.228;37.632;2023-04-28T09:32:37;98862.66;;;15.18;nan
72975;BME280;61166;54.228;37.632;2023-04-28T09:35:04;98863.63;;;15.34;nan
72975;BME280;61166;54.228;37.632;2023-04-28T09:37:31;98860.22;;;15.38;nan
72975;BME280;61166;54.228;37.632;2023-04-28T09:40:06;98865.63;;;15.48;nan
72975;BME280;61166;54.228;37.632;2023-04-28T09:42:40;98848.81;;;15.65;nan
72975;BME280;61166;54.228;37.632;2023-04-28T09:45:12;98857.53;;;15.92;nan
72975;BME280;61166;54.228;37.632;2023-04-28T09:47:39;98857.44;;;16.14;nan
72975;BME280;61166;54.228;37.632;2023-04-28T09:50:09;98851.50;;;16.44;nan
72975;BME280;61166;54.228;37.632;2023-04-28T09:52:36;98864.41;;;16.72;nan
72975;BME280;61166;54.228;37.632;2023-04-28T09:55:05;98864.00;;;17.06;nan
72975;BME280;61166;54.228;37.632;2023-04-28T09:57:33;98865.66;;;17.37;nan
72975;BME280;61166;54.228;37.632;2023-04-28T10:00:02;98907.69;;;17.50;nan
72975;BME280;61166;54.228;37.632;2023-04-28T10:02:29;98867.88;;;17.71;nan
72975;BME280;61166;54.228;37.632;2023-04-28T10:04:59;98875.56;;;17.93;nan
72975;BME280;61166;54.228;37.632;2023-04-28T10:07:26;98882.75;;;18.02;nan
72975;BME280;61166;54.228;37.632;2023-04-28T10:09:54;98882.75;;;18.02;nan
72975;BME280;61166;54.228;37.632;2023-04-28T10:12:23;98869.97;;;17.99;nan
72975;BME280;61166;54.228;37.632;2023-04-28T10:14:50;98875.56;;;17.98;nan
72975;BME280;61166;54.228;37.632;2023-04-28T10:17:17;98876.38;;;17.88;nan
72975;BME280;61166;54.228;37.632;2023-04-28T10:19:45;98889.16;;;17.81;nan
72975;BME280;61166;54.228;37.632;2023-04-28T10:27:43;98903.88;;;17.11;nan
72975;BME280;61166;54.228;37.632;2023-04-28T10:30:14;98906.66;;;16.84;nan
72975;BME280;61166;54.228;37.632;2023-04-28T10:32:45;98911.13;;;16.68;nan
72975;BME280;61166;54.228;37.632;2023-04-28T10:38:12;98902.78;;;16.55;nan
72975;BME280;61166;54.228;37.632;2023-04-28T10:40:42;98899.09;;;16.61;nan
72975;BME280;61166;54.228;37.632;2023-04-28T10:43:31;98905.53;;;16.65;nan
72975;BME280;61166;54.228;37.632;2023-04-28T10:45:59;98907.06;;;16.61;nan
72975;BME280;61166;54.228;37.632;2023-04-28T10:56:10;98904.63;;;16.54;nan
72975;BME280;61166;54.228;37.632;2023-04-28T10:58:38;98893.31;;;16.27;nan
72975;BME280;61166;54.228;37.632;2023-04-28T11:13:41;98905.44;;;16.12;nan
72975;BME280;61166;54.228;37.632;2023-04-28T11:16:08;98895.59;;;16.50;nan
72975;BME280;61166;54.228;37.632;2023-04-28T11:18:55;98896.78;;;16.69;nan
72975;BME280;61166;54.228;37.632;2023-04-28T11:21:23;98892.34;;;16.90;nan
72975;BME280;61166;54.228;37.632;2023-04-28T11:23:51;98893.81;;;17.18;nan
72975;BME280;61166;54.228;37.632;2023-04-28T11:26:18;98889.59;;;17.32;nan
72975;BME280;61166;54.228;37.632;2023-04-28T11:28:48;98880.81;;;17.47;nan
72975;BME280;61166;54.228;37.632;2023-04-28T11:31:16;98881.13;;;17.61;nan
72975;BME280;61166;54.228;37.632;2023-04-28T11:33:44;98883.03;;;17.75;nan
72975;BME280;61166;54.228;37.632;2023-04-28T11:36:41;98873.19;;;17.66;nan
72975;BME280;61166;54.228;37.632;2023-04-28T11:39:09;98872.88;;;17.62;nan
72975;BME280;61166;54.228;37.632;2023-04-28T11:44:10;98873.19;;;17.71;nan
72975;BME280;61166;54.228;37.632;2023-04-28T11:46:44;98877.19;;;17.84;nan
72975;BME280;61166;54.228;37.632;2023-04-28T11:49:11;98877.19;;;17.84;nan
72975;BME280;61166;54.228;37.632;2023-04-28T11:51:37;98850.75;;;18.43;nan
72975;BME280;61166;54.228;37.632;2023-04-28T12:01:33;98840.06;;;19.18;nan
72975;BME280;61166;54.228;37.632;2023-04-28T12:03:59;98845.63;;;19.21;nan
72975;BME280;61166;54.228;37.632;2023-04-28T12:08:54;98840.47;;;18.91;nan
72975;BME280;61166;54.228;37.632;2023-04-28T12:11:21;98847.94;;;18.94;nan
72975;BME280;61166;54.228;37.632;2023-04-28T12:14:07;98847.16;;;18.88;nan
72975;BME280;61166;54.228;37.632;2023-04-28T12:16:41;98841.47;;;19.05;nan
72975;BME280;61166;54.228;37.632;2023-04-28T12:19:09;98843.97;;;19.30;nan
72975;BME280;61166;54.228;37.632;2023-04-28T12:21:37;98841.19;;;19.56;nan
72975;BME280;61166;54.228;37.632;2023-04-28T12:26:44;98842.53;;;19.48;nan
72975;BME280;61166;54.228;37.632;2023-04-28T12:29:36;98846.16;;;19.23;nan
72975;BME280;61166;54.228;37.632;2023-04-28T12:32:05;98842.78;;;19.07;nan
72975;BME280;61166;54.228;37.632;2023-04-28T12:34:31;98842.56;;;18.99;nan
72975;BME280;61166;54.228;37.632;2023-04-28T12:36:59;98843.16;;;18.86;nan
72975;BME280;61166;54.228;37.632;2023-04-28T12:39:26;98840.06;;;18.63;nan
72975;BME280;61166;54.228;37.632;2023-04-28T12:44:20;98848.66;;;18.30;nan
72975;BME280;61166;54.228;37.632;2023-04-28T12:46:47;98860.91;;;18.15;nan
72975;BME280;61166;54.228;37.632;2023-04-28T12:49:13;98854.53;;;18.01;nan
72975;BME280;61166;54.228;37.632;2023-04-28T12:54:07;98864.38;;;17.60;nan
72975;BME280;61166;54.228;37.632;2023-04-28T12:56:34;98867.28;;;17.48;nan
72975;BME280;61166;54.228;37.632;2023-04-28T12:59:00;98863.28;;;17.46;nan
72975;BME280;61166;54.228;37.632;2023-04-28T13:01:27;98869.38;;;17.36;nan
72975;BME280;61166;54.228;37.632;2023-04-28T13:03:54;98869.38;;;17.36;nan
72975;BME280;61166;54.228;37.632;2023-04-28T13:06:21;98871.94;;;16.96;nan
72975;BME280;61166;54.228;37.632;2023-04-28T13:13:48;98870.03;;;16.39;nan
72975;BME280;61166;54.228;37.632;2023-04-28T13:16:15;98874.50;;;16.33;nan
72975;BME280;61166;54.228;37.632;2023-04-28T13:18:41;98873.94;;;16.26;nan
72975;BME280;61166;54.228;37.632;2023-04-28T13:21:08;98880.28;;;16.25;nan
72975;BME280;61166;54.228;37.632;2023-04-28T13:23:34;98875.50;;;16.22;nan
72975;BME280;61166;54.228;37.632;2023-04-28T13:26:01;98875.50;;;16.22;nan
72975;BME280;61166;54.228;37.632;2023-04-28T13:28:27;98875.50;;;16.22;nan
72975;BME280;61166;54.228;37.632;2023-04-28T13:38:13;98880.25;;;16.62;nan
72975;BME280;61166;54.228;37.632;2023-04-28T13:40:40;98881.31;;;16.61;nan
72975;BME280;61166;54.228;37.632;2023-04-28T13:43:06;98882.38;;;16.60;nan
72975;BME280;61166;54.228;37.632;2023-04-28T13:45:33;98886.59;;;16.56;nan
72975;BME280;61166;54.228;37.632;2023-04-28T13:47:59;98885.75;;;16.45;nan
72975;BME280;61166;54.228;37.632;2023-04-28T13:50:26;98884.03;;;16.29;nan
72975;BME280;61166;54.228;37.632;2023-04-28T13:52:52;98887.97;;;16.22;nan
72975;BME280;61166;54.228;37.632;2023-04-28T13:55:19;98887.97;;;16.22;nan
72975;BME280;61166;54.228;37.632;2023-04-28T13:57:46;98887.97;;;16.22;nan
72975;BME280;61166;54.228;37.632;2023-04-28T14:00:13;98881.34;;;15.87;nan
72975;BME280;61166;54.228;37.632;2023-04-28T14:02:39;98881.34;;;15.87;nan
72975;BME280;61166;54.228;37.632;2023-04-28T14:05:06;98881.34;;;15.87;nan
72975;BME280;61166;54.228;37.632;2023-04-28T14:07:33;98881.34;;;15.87;nan
72975;BME280;61166;54.228;37.632;2023-04-28T14:14:53;98868.75;;;16.04;nan
72975;BME280;61166;54.228;37.632;2023-04-28T14:19:54;98872.50;;;16.08;nan
72975;BME280;61166;54.228;37.632;2023-04-28T14:22:21;98869.38;;;16.22;nan
72975;BME280;61166;54.228;37.632;2023-04-28T14:24:47;98869.38;;;16.22;nan
72975;BME280;61166;54.228;37.632;2023-04-28T14:27:14;98872.94;;;16.37;nan
72975;BME280;61166;54.228;37.632;2023-04-28T14:29:41;98872.25;;;16.52;nan
72975;BME280;61166;54.228;37.632;2023-04-28T14:32:07;98872.25;;;16.52;nan
72975;BME280;61166;54.228;37.632;2023-04-28T14:34:34;98872.66;;;16.34;nan
72975;BME280;61166;54.228;37.632;2023-04-28T14:37:00;98869.09;;;16.18;nan
72975;BME280;61166;54.228;37.632;2023-04-28T14:39:27;98882.56;;;16.06;nan
72975;BME280;61166;54.228;37.632;2023-04-28T14:41:54;98882.56;;;16.06;nan
72975;BME280;61166;54.228;37.632;2023-04-28T14:44:21;98878.44;;;15.89;nan
72975;BME280;61166;54.228;37.632;2023-04-28T14:46:47;98884.00;;;15.87;nan
72975;BME280;61166;54.228;37.632;2023-04-28T14:49:14;98884.00;;;15.87;nan
72975;BME280;61166;54.228;37.632;2023-04-28T14:51:40;98884.00;;;15.87;nan
72975;BME280;61166;54.228;37.632;2023-04-28T14:54:08;98884.00;;;15.87;nan
72975;BME280;61166;54.228;37.632;2023-04-28T14:56:34;98894.06;;;15.85;nan
72975;BME280;61166;54.228;37.632;2023-04-28T14:59:01;98894.06;;;15.85;nan
72975;BME280;61166;54.228;37.632;2023-04-28T15:01:29;98894.06;;;15.85;nan
72975;BME280;61166;54.228;37.632;2023-04-28T15:03:56;98894.06;;;15.85;nan
72975;BME280;61166;54.228;37.632;2023-04-28T15:08:49;98911.97;;;14.97;nan
72975;BME280;61166;54.228;37.632;2023-04-28T15:11:15;98911.97;;;14.97;nan
72975;BME280;61166;54.228;37.632;2023-04-28T15:13:42;98911.97;;;14.97;nan
72975;BME280;61166;54.228;37.632;2023-04-28T22:41:24;98933.00;;;6.88;nan
72975;BME280;61166;54.228;37.632;2023-04-28T22:43:50;98932.34;;;6.79;nan
72975;BME280;61166;54.228;37.632;2023-04-28T22:46:17;98932.34;;;6.79;nan
72975;BME280;61166;54.228;37.632;2023-04-28T22:48:43;98923.88;;;6.77;nan
72975;BME280;61166;54.228;37.632;2023-04-28T22:51:10;98923.88;;;6.77;nan
72975;BME280;61166;54.228;37.632;2023-04-28T22:53:36;98923.88;;;6.77;nan
72975;BME280;61166;54.228;37.632;2023-04-28T22:56:03;98923.88;;;6.77;nan
72975;BME280;61166;54.228;37.632;2023-04-28T23:15:37;98918.66;;;6.15;nan
72975;BME280;61166;54.228;37.632;2023-04-28T23:18:04;98922.22;;;6.15;nan
72975;BME280;61166;54.228;37.632;2023-04-28T23:30:17;98938.47;;;5.88;nan
72975;BME280;61166;54.228;37.632;2023-04-28T23:32:44;98938.47;;;5.88;nan
72975;BME280;61166;54.228;37.632;2023-04-28T23:35:10;98938.47;;;5.88;nan
72975;BME280;61166;54.228;37.632;2023-04-28T23:37:37;98938.47;;;5.88;nan
72975;BME280;61166;54.228;37.632;2023-04-28T23:40:04;98930.53;;;5.96;nan
72975;BME280;61166;54.228;37.632;2023-04-28T23:42:30;98941.63;;;5.83;nan
72975;BME280;61166;54.228;37.632;2023-04-28T23:44:57;98928.13;;;5.73;nan
72975;BME280;61166;54.228;37.632;2023-04-28T23:47:23;98919.06;;;5.69;nan
72975;BME280;61166;54.228;37.632;2023-04-28T23:49:50;98919.06;;;5.69;nan
72975;BME280;61166;54.228;37.632;2023-04-28T23:52:17;98907.31;;;5.58;nan
72975;BME280;61166;54.228;37.632;2023-04-28T23:54:44;98914.63;;;5.48;nan
72975;BME280;61166;54.228;37.632;2023-04-28T23:57:10;98927.66;;;5.48;nan
72975;BME280;61166;54.228;37.632;2023-04-28T23:59:37;98929.81;;;5.45;nan
